sensor_id;sensor_type;location;lat;lon;timestamp;P1;durP1;ratioP1;P2;durP2;ratioP2
70467;SDS011;57934;51.532;7.684;2022-09-02T00:01:14;2.47;;;1.00;;
70467;SDS011;57934;51.532;7.684;2022-09-02T00:03:42;2.28;;;1.13;;
70467;SDS011;57934;51.532;7.684;2022-09-02T00:06:09;3.65;;;1.08;;
70467;SDS011;57934;51.532;7.684;2022-09-02T00:08:35;1.40;;;0.90;;
70467;SDS011;57934;51.532;7.684;2022-09-02T00:11:02;6.90;;;1.40;;
70467;SDS011;57934;51.532;7.684;2022-09-02T00:13:31;1.83;;;1.08;;
70467;SDS011;57934;51.532;7.684;2022-09-02T00:15:58;3.55;;;1.20;;
70467;SDS011;57934;51.532;7.684;2022-09-02T00:18:24;1.02;;;0.82;;
70467;SDS011;57934;51.532;7.684;2022-09-02T00:20:51;0.80;;;0.70;;
70467;SDS011;57934;51.532;7.684;2022-09-02T00:23:18;4.47;;;0.90;;
70467;SDS011;57934;51.532;7.684;2022-09-02T00:25:44;2.33;;;0.85;;
70467;SDS011;57934;51.532;7.684;2022-09-02T00:28:11;7.88;;;1.15;;
70467;SDS011;57934;51.532;7.684;2022-09-02T00:30:38;3.63;;;1.17;;
70467;SDS011;57934;51.532;7.684;2022-09-02T00:33:05;6.10;;;1.02;;
70467;SDS011;57934;51.532;7.684;2022-09-02T00:35:32;5.70;;;1.20;;
70467;SDS011;57934;51.532;7.684;2022-09-02T00:37:58;2.70;;;1.20;;
70467;SDS011;57934;51.532;7.684;2022-09-02T00:40:25;7.88;;;1.00;;
70467;SDS011;57934;51.532;7.684;2022-09-02T00:42:53;4.53;;;1.00;;
70467;SDS011;57934;51.532;7.684;2022-09-02T00:45:19;4.40;;;1.00;;
70467;SDS011;57934;51.532;7.684;2022-09-02T00:47:46;2.75;;;1.00;;
70467;SDS011;57934;51.532;7.684;2022-09-02T00:50:18;1.90;;;0.93;;
70467;SDS011;57934;51.532;7.684;2022-09-02T00:52:52;4.07;;;1.23;;
70467;SDS011;57934;51.532;7.684;2022-09-02T00:55:23;1.83;;;1.10;;
70467;SDS011;57934;51.532;7.684;2022-09-02T00:57:52;2.08;;;0.90;;
70467;SDS011;57934;51.532;7.684;2022-09-02T01:00:23;3.95;;;1.30;;
70467;SDS011;57934;51.532;7.684;2022-09-02T01:02:54;6.82;;;2.75;;
70467;SDS011;57934;51.532;7.684;2022-09-02T01:05:23;4.20;;;1.08;;
70467;SDS011;57934;51.532;7.684;2022-09-02T01:07:51;1.77;;;1.23;;
70467;SDS011;57934;51.532;7.684;2022-09-02T01:10:24;2.45;;;0.90;;
70467;SDS011;57934;51.532;7.684;2022-09-02T01:12:55;2.00;;;1.10;;
70467;SDS011;57934;51.532;7.684;2022-09-02T01:15:23;4.43;;;0.77;;
70467;SDS011;57934;51.532;7.684;2022-09-02T01:17:50;3.40;;;1.13;;
70467;SDS011;57934;51.532;7.684;2022-09-02T01:20:22;1.05;;;0.75;;
70467;SDS011;57934;51.532;7.684;2022-09-02T01:22:50;3.80;;;0.98;;
70467;SDS011;57934;51.532;7.684;2022-09-02T01:25:18;4.53;;;0.95;;
70467;SDS011;57934;51.532;7.684;2022-09-02T01:27:46;4.50;;;1.00;;
70467;SDS011;57934;51.532;7.684;2022-09-02T01:30:15;4.47;;;1.30;;
70467;SDS011;57934;51.532;7.684;2022-09-02T01:32:47;2.40;;;0.90;;
70467;SDS011;57934;51.532;7.684;2022-09-02T01:35:14;3.10;;;1.17;;
70467;SDS011;57934;51.532;7.684;2022-09-02T01:37:41;3.72;;;0.80;;
70467;SDS011;57934;51.532;7.684;2022-09-02T01:40:09;1.70;;;1.08;;
70467;SDS011;57934;51.532;7.684;2022-09-02T01:42:37;2.88;;;0.73;;
70467;SDS011;57934;51.532;7.684;2022-09-02T01:45:05;1.35;;;1.00;;
70467;SDS011;57934;51.532;7.684;2022-09-02T01:47:32;3.30;;;0.88;;
70467;SDS011;57934;51.532;7.684;2022-09-02T01:49:58;6.03;;;1.10;;
70467;SDS011;57934;51.532;7.684;2022-09-02T01:52:26;2.55;;;0.75;;
70467;SDS011;57934;51.532;7.684;2022-09-02T01:54:54;1.92;;;0.80;;
70467;SDS011;57934;51.532;7.684;2022-09-02T01:57:20;0.55;;;0.55;;
70467;SDS011;57934;51.532;7.684;2022-09-02T01:59:50;1.88;;;0.80;;
70467;SDS011;57934;51.532;7.684;2022-09-02T02:02:17;4.05;;;0.77;;
70467;SDS011;57934;51.532;7.684;2022-09-02T02:04:45;0.80;;;0.80;;
70467;SDS011;57934;51.532;7.684;2022-09-02T02:07:13;3.95;;;1.00;;
70467;SDS011;57934;51.532;7.684;2022-09-02T02:09:41;2.38;;;1.02;;
70467;SDS011;57934;51.532;7.684;2022-09-02T02:12:13;2.42;;;0.70;;
70467;SDS011;57934;51.532;7.684;2022-09-02T02:14:39;1.95;;;0.73;;
70467;SDS011;57934;51.532;7.684;2022-09-02T02:17:06;2.08;;;0.90;;
70467;SDS011;57934;51.532;7.684;2022-09-02T02:19:32;1.73;;;0.80;;
70467;SDS011;57934;51.532;7.684;2022-09-02T02:21:59;1.95;;;0.85;;
70467;SDS011;57934;51.532;7.684;2022-09-02T02:24:25;1.52;;;0.90;;
70467;SDS011;57934;51.532;7.684;2022-09-02T02:26:52;3.00;;;1.00;;
70467;SDS011;57934;51.532;7.684;2022-09-02T02:29:19;0.93;;;0.90;;
70467;SDS011;57934;51.532;7.684;2022-09-02T02:31:47;2.25;;;0.60;;
70467;SDS011;57934;51.532;7.684;2022-09-02T02:34:13;2.40;;;0.80;;
70467;SDS011;57934;51.532;7.684;2022-09-02T02:36:42;2.33;;;0.73;;
70467;SDS011;57934;51.532;7.684;2022-09-02T02:39:08;1.10;;;0.80;;
70467;SDS011;57934;51.532;7.684;2022-09-02T02:41:37;1.70;;;0.90;;
70467;SDS011;57934;51.532;7.684;2022-09-02T02:44:05;4.57;;;0.70;;
70467;SDS011;57934;51.532;7.684;2022-09-02T02:46:35;1.90;;;1.27;;
70467;SDS011;57934;51.532;7.684;2022-09-02T02:49:02;2.53;;;0.55;;
70467;SDS011;57934;51.532;7.684;2022-09-02T02:51:31;2.58;;;0.80;;
70467;SDS011;57934;51.532;7.684;2022-09-02T02:53:58;4.63;;;0.95;;
70467;SDS011;57934;51.532;7.684;2022-09-02T02:56:27;3.88;;;1.02;;
70467;SDS011;57934;51.532;7.684;2022-09-02T02:58:54;2.25;;;0.70;;
70467;SDS011;57934;51.532;7.684;2022-09-02T03:01:20;1.98;;;0.82;;
70467;SDS011;57934;51.532;7.684;2022-09-02T03:03:47;1.20;;;0.70;;
70467;SDS011;57934;51.532;7.684;2022-09-02T03:06:13;1.63;;;0.90;;
70467;SDS011;57934;51.532;7.684;2022-09-02T03:08:39;1.88;;;0.73;;
70467;SDS011;57934;51.532;7.684;2022-09-02T03:11:06;4.03;;;0.77;;
70467;SDS011;57934;51.532;7.684;2022-09-02T03:13:35;2.95;;;0.98;;
70467;SDS011;57934;51.532;7.684;2022-09-02T03:16:03;4.13;;;0.90;;
70467;SDS011;57934;51.532;7.684;2022-09-02T03:18:32;3.00;;;1.00;;
70467;SDS011;57934;51.532;7.684;2022-09-02T03:20:58;1.08;;;0.80;;
70467;SDS011;57934;51.532;7.684;2022-09-02T03:23:25;1.48;;;0.70;;
70467;SDS011;57934;51.532;7.684;2022-09-02T03:25:51;2.42;;;0.95;;
70467;SDS011;57934;51.532;7.684;2022-09-02T03:28:31;3.05;;;0.80;;
70467;SDS011;57934;51.532;7.684;2022-09-02T03:30:58;1.73;;;0.82;;
70467;SDS011;57934;51.532;7.684;2022-09-02T03:33:25;1.77;;;0.85;;
70467;SDS011;57934;51.532;7.684;2022-09-02T03:35:52;1.17;;;1.00;;
70467;SDS011;57934;51.532;7.684;2022-09-02T03:38:18;3.83;;;1.08;;
70467;SDS011;57934;51.532;7.684;2022-09-02T03:40:44;1.33;;;0.80;;
70467;SDS011;57934;51.532;7.684;2022-09-02T03:43:11;1.77;;;0.85;;
70467;SDS011;57934;51.532;7.684;2022-09-02T03:45:37;1.50;;;0.80;;
70467;SDS011;57934;51.532;7.684;2022-09-02T03:48:07;2.13;;;0.95;;
70467;SDS011;57934;51.532;7.684;2022-09-02T03:50:38;1.77;;;0.82;;
70467;SDS011;57934;51.532;7.684;2022-09-02T03:53:08;1.27;;;0.90;;
70467;SDS011;57934;51.532;7.684;2022-09-02T03:55:36;5.45;;;1.00;;
70467;SDS011;57934;51.532;7.684;2022-09-02T03:58:03;1.50;;;0.93;;
70467;SDS011;57934;51.532;7.684;2022-09-02T04:00:29;1.50;;;1.05;;
70467;SDS011;57934;51.532;7.684;2022-09-02T04:03:01;6.43;;;0.93;;
70467;SDS011;57934;51.532;7.684;2022-09-02T04:05:29;1.20;;;0.90;;
70467;SDS011;57934;51.532;7.684;2022-09-02T04:07:57;6.00;;;1.13;;
70467;SDS011;57934;51.532;7.684;2022-09-02T04:10:24;3.10;;;1.05;;
70467;SDS011;57934;51.532;7.684;2022-09-02T04:12:51;3.95;;;1.30;;
70467;SDS011;57934;51.532;7.684;2022-09-02T04:15:18;2.40;;;1.10;;
70467;SDS011;57934;51.532;7.684;2022-09-02T04:17:47;4.93;;;1.20;;
70467;SDS011;57934;51.532;7.684;2022-09-02T04:20:15;2.40;;;0.90;;
70467;SDS011;57934;51.532;7.684;2022-09-02T04:22:43;7.82;;;0.90;;
70467;SDS011;57934;51.532;7.684;2022-09-02T04:25:09;5.65;;;1.67;;
70467;SDS011;57934;51.532;7.684;2022-09-02T04:27:36;2.13;;;1.05;;
70467;SDS011;57934;51.532;7.684;2022-09-02T04:30:04;4.05;;;1.30;;
70467;SDS011;57934;51.532;7.684;2022-09-02T04:32:34;8.25;;;2.20;;
70467;SDS011;57934;51.532;7.684;2022-09-02T04:35:02;8.02;;;1.20;;
70467;SDS011;57934;51.532;7.684;2022-09-02T04:37:30;3.35;;;1.20;;
70467;SDS011;57934;51.532;7.684;2022-09-02T04:39:58;5.35;;;1.50;;
70467;SDS011;57934;51.532;7.684;2022-09-02T04:42:24;4.28;;;1.52;;
70467;SDS011;57934;51.532;7.684;2022-09-02T04:44:52;6.25;;;1.50;;
70467;SDS011;57934;51.532;7.684;2022-09-02T04:47:21;9.95;;;1.27;;
70467;SDS011;57934;51.532;7.684;2022-09-02T04:49:49;3.90;;;1.00;;
70467;SDS011;57934;51.532;7.684;2022-09-02T04:52:16;5.28;;;1.08;;
70467;SDS011;57934;51.532;7.684;2022-09-02T04:54:45;5.32;;;1.27;;
70467;SDS011;57934;51.532;7.684;2022-09-02T04:57:12;8.65;;;1.23;;
70467;SDS011;57934;51.532;7.684;2022-09-02T04:59:38;4.53;;;1.42;;
70467;SDS011;57934;51.532;7.684;2022-09-02T05:02:09;1.90;;;1.20;;
70467;SDS011;57934;51.532;7.684;2022-09-02T05:04:35;2.13;;;1.23;;
70467;SDS011;57934;51.532;7.684;2022-09-02T05:07:06;1.88;;;0.90;;
70467;SDS011;57934;51.532;7.684;2022-09-02T05:09:39;3.55;;;1.00;;
70467;SDS011;57934;51.532;7.684;2022-09-02T05:12:05;3.75;;;1.00;;
70467;SDS011;57934;51.532;7.684;2022-09-02T05:14:43;3.67;;;1.00;;
70467;SDS011;57934;51.532;7.684;2022-09-02T05:17:09;4.57;;;1.10;;
70467;SDS011;57934;51.532;7.684;2022-09-02T05:19:39;6.68;;;1.25;;
70467;SDS011;57934;51.532;7.684;2022-09-02T05:22:05;4.70;;;0.80;;
70467;SDS011;57934;51.532;7.684;2022-09-02T05:24:36;3.60;;;1.00;;
70467;SDS011;57934;51.532;7.684;2022-09-02T05:27:06;1.23;;;0.90;;
70467;SDS011;57934;51.532;7.684;2022-09-02T05:29:34;6.70;;;2.25;;
70467;SDS011;57934;51.532;7.684;2022-09-02T05:32:00;3.45;;;0.98;;
70467;SDS011;57934;51.532;7.684;2022-09-02T05:34:27;1.27;;;0.90;;
70467;SDS011;57934;51.532;7.684;2022-09-02T05:36:58;6.38;;;1.30;;
70467;SDS011;57934;51.532;7.684;2022-09-02T05:39:27;9.75;;;1.20;;
70467;SDS011;57934;51.532;7.684;2022-09-02T05:41:54;4.18;;;1.00;;
70467;SDS011;57934;51.532;7.684;2022-09-02T05:44:20;1.45;;;1.05;;
70467;SDS011;57934;51.532;7.684;2022-09-02T05:46:47;2.53;;;1.20;;
70467;SDS011;57934;51.532;7.684;2022-09-02T05:49:14;4.18;;;1.77;;
70467;SDS011;57934;51.532;7.684;2022-09-02T05:51:49;4.68;;;1.20;;
70467;SDS011;57934;51.532;7.684;2022-09-02T05:54:31;2.95;;;1.23;;
70467;SDS011;57934;51.532;7.684;2022-09-02T05:57:03;8.05;;;1.40;;
70467;SDS011;57934;51.532;7.684;2022-09-02T05:59:35;2.72;;;1.30;;
70467;SDS011;57934;51.532;7.684;2022-09-02T06:02:04;4.78;;;1.23;;
70467;SDS011;57934;51.532;7.684;2022-09-02T06:04:31;7.32;;;1.42;;
70467;SDS011;57934;51.532;7.684;2022-09-02T06:07:02;2.25;;;1.00;;
70467;SDS011;57934;51.532;7.684;2022-09-02T06:09:29;2.55;;;1.05;;
70467;SDS011;57934;51.532;7.684;2022-09-02T06:11:55;2.90;;;1.33;;
70467;SDS011;57934;51.532;7.684;2022-09-02T06:14:26;5.18;;;1.20;;
70467;SDS011;57934;51.532;7.684;2022-09-02T06:16:55;4.82;;;1.00;;
70467;SDS011;57934;51.532;7.684;2022-09-02T06:19:39;7.03;;;1.25;;
70467;SDS011;57934;51.532;7.684;2022-09-02T06:22:06;1.75;;;1.10;;
70467;SDS011;57934;51.532;7.684;2022-09-02T06:24:35;5.20;;;1.52;;
70467;SDS011;57934;51.532;7.684;2022-09-02T06:27:07;7.78;;;1.00;;
70467;SDS011;57934;51.532;7.684;2022-09-02T06:29:36;4.57;;;1.30;;
70467;SDS011;57934;51.532;7.684;2022-09-02T06:32:03;9.63;;;1.52;;
70467;SDS011;57934;51.532;7.684;2022-09-02T06:34:30;7.32;;;1.27;;
70467;SDS011;57934;51.532;7.684;2022-09-02T06:36:56;8.45;;;1.60;;
70467;SDS011;57934;51.532;7.684;2022-09-02T06:39:23;9.40;;;1.50;;
70467;SDS011;57934;51.532;7.684;2022-09-02T06:41:52;6.63;;;1.27;;
70467;SDS011;57934;51.532;7.684;2022-09-02T06:44:21;5.75;;;1.10;;
70467;SDS011;57934;51.532;7.684;2022-09-02T06:46:52;6.40;;;1.50;;
70467;SDS011;57934;51.532;7.684;2022-09-02T06:49:20;7.38;;;1.48;;
70467;SDS011;57934;51.532;7.684;2022-09-02T06:51:49;5.85;;;1.70;;
70467;SDS011;57934;51.532;7.684;2022-09-02T06:54:18;2.80;;;1.02;;
70467;SDS011;57934;51.532;7.684;2022-09-02T06:56:48;8.05;;;2.25;;
70467;SDS011;57934;51.532;7.684;2022-09-02T06:59:18;5.07;;;1.15;;
70467;SDS011;57934;51.532;7.684;2022-09-02T07:01:49;5.03;;;2.00;;
70467;SDS011;57934;51.532;7.684;2022-09-02T07:04:18;6.03;;;1.67;;
70467;SDS011;57934;51.532;7.684;2022-09-02T07:07:05;5.20;;;1.45;;
70467;SDS011;57934;51.532;7.684;2022-09-02T07:09:37;2.45;;;1.30;;
70467;SDS011;57934;51.532;7.684;2022-09-02T07:12:10;3.22;;;1.58;;
70467;SDS011;57934;51.532;7.684;2022-09-02T07:14:44;5.18;;;1.42;;
70467;SDS011;57934;51.532;7.684;2022-09-02T07:17:13;6.88;;;1.67;;
70467;SDS011;57934;51.532;7.684;2022-09-02T07:19:48;3.33;;;1.52;;
70467;SDS011;57934;51.532;7.684;2022-09-02T07:22:14;6.03;;;1.65;;
70467;SDS011;57934;51.532;7.684;2022-09-02T07:24:42;8.68;;;2.15;;
70467;SDS011;57934;51.532;7.684;2022-09-02T07:27:09;6.60;;;1.63;;
70467;SDS011;57934;51.532;7.684;2022-09-02T07:29:37;5.82;;;2.13;;
70467;SDS011;57934;51.532;7.684;2022-09-02T07:32:04;4.57;;;1.70;;
70467;SDS011;57934;51.532;7.684;2022-09-02T07:34:30;10.20;;;1.90;;
70467;SDS011;57934;51.532;7.684;2022-09-02T07:36:58;4.32;;;1.55;;
70467;SDS011;57934;51.532;7.684;2022-09-02T07:39:24;8.25;;;1.80;;
70467;SDS011;57934;51.532;7.684;2022-09-02T07:41:51;6.18;;;1.65;;
70467;SDS011;57934;51.532;7.684;2022-09-02T07:44:20;7.03;;;1.90;;
70467;SDS011;57934;51.532;7.684;2022-09-02T07:46:48;4.13;;;1.98;;
70467;SDS011;57934;51.532;7.684;2022-09-02T07:49:18;9.57;;;1.98;;
70467;SDS011;57934;51.532;7.684;2022-09-02T07:51:48;11.23;;;2.28;;
70467;SDS011;57934;51.532;7.684;2022-09-02T07:54:18;7.28;;;2.15;;
70467;SDS011;57934;51.532;7.684;2022-09-02T07:56:47;9.10;;;1.67;;
70467;SDS011;57934;51.532;7.684;2022-09-02T07:59:15;3.20;;;1.88;;
70467;SDS011;57934;51.532;7.684;2022-09-02T08:01:44;2.85;;;1.92;;
70467;SDS011;57934;51.532;7.684;2022-09-02T08:04:13;4.82;;;1.70;;
70467;SDS011;57934;51.532;7.684;2022-09-02T08:06:40;6.70;;;1.90;;
70467;SDS011;57934;51.532;7.684;2022-09-02T08:09:07;6.10;;;1.90;;
70467;SDS011;57934;51.532;7.684;2022-09-02T08:11:38;4.32;;;1.70;;
70467;SDS011;57934;51.532;7.684;2022-09-02T08:14:07;7.63;;;2.08;;
70467;SDS011;57934;51.532;7.684;2022-09-02T08:16:35;4.50;;;1.58;;
70467;SDS011;57934;51.532;7.684;2022-09-02T08:19:02;7.15;;;1.60;;
70467;SDS011;57934;51.532;7.684;2022-09-02T08:21:29;6.70;;;1.13;;
70467;SDS011;57934;51.532;7.684;2022-09-02T08:23:55;3.08;;;1.38;;
70467;SDS011;57934;51.532;7.684;2022-09-02T08:26:22;4.22;;;1.52;;
70467;SDS011;57934;51.532;7.684;2022-09-02T08:28:48;5.05;;;1.77;;
70467;SDS011;57934;51.532;7.684;2022-09-02T08:31:14;7.38;;;1.52;;
70467;SDS011;57934;51.532;7.684;2022-09-02T08:33:40;8.70;;;1.70;;
70467;SDS011;57934;51.532;7.684;2022-09-02T08:36:07;12.55;;;2.00;;
70467;SDS011;57934;51.532;7.684;2022-09-02T08:38:36;10.63;;;2.20;;
70467;SDS011;57934;51.532;7.684;2022-09-02T08:41:10;10.00;;;2.08;;
70467;SDS011;57934;51.532;7.684;2022-09-02T08:43:57;7.95;;;1.50;;
70467;SDS011;57934;51.532;7.684;2022-09-02T08:46:27;8.98;;;1.75;;
70467;SDS011;57934;51.532;7.684;2022-09-02T08:48:57;11.43;;;1.73;;
70467;SDS011;57934;51.532;7.684;2022-09-02T08:51:32;13.32;;;1.85;;
70467;SDS011;57934;51.532;7.684;2022-09-02T08:54:04;9.13;;;1.83;;
70467;SDS011;57934;51.532;7.684;2022-09-02T08:56:30;6.68;;;1.77;;
70467;SDS011;57934;51.532;7.684;2022-09-02T08:58:57;11.43;;;1.90;;
70467;SDS011;57934;51.532;7.684;2022-09-02T09:01:44;8.00;;;1.80;;
70467;SDS011;57934;51.532;7.684;2022-09-02T09:07:39;9.25;;;1.60;;
70467;SDS011;57934;51.532;7.684;2022-09-02T09:18:38;6.07;;;1.80;;
70467;SDS011;57934;51.532;7.684;2022-09-02T09:21:26;10.05;;;1.58;;
70467;SDS011;57934;51.532;7.684;2022-09-02T09:23:55;11.40;;;1.85;;
70467;SDS011;57934;51.532;7.684;2022-09-02T09:26:26;3.60;;;1.48;;
70467;SDS011;57934;51.532;7.684;2022-09-02T09:28:54;8.48;;;1.67;;
70467;SDS011;57934;51.532;7.684;2022-09-02T09:31:21;6.07;;;1.60;;
70467;SDS011;57934;51.532;7.684;2022-09-02T09:33:57;5.85;;;1.35;;
70467;SDS011;57934;51.532;7.684;2022-09-02T09:39:17;12.80;;;1.80;;
70467;SDS011;57934;51.532;7.684;2022-09-02T09:41:50;9.18;;;1.92;;
70467;SDS011;57934;51.532;7.684;2022-09-02T09:46:59;8.48;;;1.85;;
70467;SDS011;57934;51.532;7.684;2022-09-02T09:49:26;2.85;;;1.50;;
70467;SDS011;57934;51.532;7.684;2022-09-02T09:51:54;6.28;;;2.10;;
70467;SDS011;57934;51.532;7.684;2022-09-02T09:54:20;6.53;;;1.40;;
70467;SDS011;57934;51.532;7.684;2022-09-02T09:56:51;7.78;;;1.60;;
70467;SDS011;57934;51.532;7.684;2022-09-02T09:59:30;5.10;;;1.60;;
70467;SDS011;57934;51.532;7.684;2022-09-02T10:02:01;6.70;;;1.90;;
70467;SDS011;57934;51.532;7.684;2022-09-02T10:04:29;4.93;;;1.50;;
70467;SDS011;57934;51.532;7.684;2022-09-02T10:06:57;5.75;;;1.63;;
70467;SDS011;57934;51.532;7.684;2022-09-02T10:09:33;7.45;;;1.70;;
70467;SDS011;57934;51.532;7.684;2022-09-02T10:14:50;5.90;;;1.58;;
70467;SDS011;57934;51.532;7.684;2022-09-02T10:20:16;8.77;;;2.03;;
70467;SDS011;57934;51.532;7.684;2022-09-02T10:25:37;8.88;;;1.60;;
70467;SDS011;57934;51.532;7.684;2022-09-02T10:31:23;7.00;;;1.90;;
70467;SDS011;57934;51.532;7.684;2022-09-02T10:42:15;2.55;;;1.52;;
70467;SDS011;57934;51.532;7.684;2022-09-02T10:47:34;6.10;;;1.65;;
70467;SDS011;57934;51.532;7.684;2022-09-02T10:50:16;4.07;;;1.65;;
70467;SDS011;57934;51.532;7.684;2022-09-02T11:00:54;5.43;;;1.55;;
70467;SDS011;57934;51.532;7.684;2022-09-02T11:03:28;3.63;;;1.40;;
70467;SDS011;57934;51.532;7.684;2022-09-02T11:06:06;4.72;;;1.30;;
70467;SDS011;57934;51.532;7.684;2022-09-02T11:08:38;2.85;;;1.23;;
70467;SDS011;57934;51.532;7.684;2022-09-02T11:16:45;2.92;;;1.17;;
70467;SDS011;57934;51.532;7.684;2022-09-02T11:27:08;2.80;;;1.10;;
70467;SDS011;57934;51.532;7.684;2022-09-02T11:32:28;3.35;;;1.30;;
70467;SDS011;57934;51.532;7.684;2022-09-02T11:35:24;2.45;;;1.35;;
70467;SDS011;57934;51.532;7.684;2022-09-02T11:51:52;1.02;;;0.90;;
70467;SDS011;57934;51.532;7.684;2022-09-02T11:54:21;1.00;;;0.90;;
70467;SDS011;57934;51.532;7.684;2022-09-02T11:56:59;1.50;;;0.90;;
70467;SDS011;57934;51.532;7.684;2022-09-02T12:07:55;3.00;;;1.20;;
70467;SDS011;57934;51.532;7.684;2022-09-02T12:13:05;2.38;;;0.90;;
70467;SDS011;57934;51.532;7.684;2022-09-02T12:15:32;3.47;;;1.20;;
70467;SDS011;57934;51.532;7.684;2022-09-02T12:18:13;1.00;;;1.00;;
70467;SDS011;57934;51.532;7.684;2022-09-02T12:26:14;3.05;;;0.90;;
70467;SDS011;57934;51.532;7.684;2022-09-02T12:28:41;1.00;;;1.00;;
70467;SDS011;57934;51.532;7.684;2022-09-02T12:31:56;2.50;;;1.40;;
70467;SDS011;57934;51.532;7.684;2022-09-02T12:36:47;1.13;;;1.02;;
70467;SDS011;57934;51.532;7.684;2022-09-02T12:52:46;1.95;;;1.00;;
70467;SDS011;57934;51.532;7.684;2022-09-02T12:57:42;1.58;;;1.15;;
70467;SDS011;57934;51.532;7.684;2022-09-02T13:00:12;3.72;;;1.02;;
70467;SDS011;57934;51.532;7.684;2022-09-02T13:02:43;1.23;;;1.13;;
70467;SDS011;57934;51.532;7.684;2022-09-02T13:05:32;2.78;;;1.20;;
70467;SDS011;57934;51.532;7.684;2022-09-02T13:08:06;1.15;;;1.05;;
70467;SDS011;57934;51.532;7.684;2022-09-02T13:11:18;2.05;;;0.90;;
70467;SDS011;57934;51.532;7.684;2022-09-02T13:17:21;3.38;;;0.85;;
70467;SDS011;57934;51.532;7.684;2022-09-02T13:20:08;6.35;;;1.27;;
70467;SDS011;57934;51.532;7.684;2022-09-02T13:26:00;2.78;;;1.25;;
70467;SDS011;57934;51.532;7.684;2022-09-02T13:34:39;1.70;;;1.08;;
70467;SDS011;57934;51.532;7.684;2022-09-02T13:39:51;2.30;;;0.93;;
70467;SDS011;57934;51.532;7.684;2022-09-02T13:42:18;1.67;;;1.05;;
70467;SDS011;57934;51.532;7.684;2022-09-02T13:44:48;2.00;;;1.00;;
70467;SDS011;57934;51.532;7.684;2022-09-02T13:47:17;2.55;;;1.38;;
70467;SDS011;57934;51.532;7.684;2022-09-02T13:49:48;1.80;;;1.20;;
70467;SDS011;57934;51.532;7.684;2022-09-02T13:52:20;4.57;;;1.00;;
70467;SDS011;57934;51.532;7.684;2022-09-02T13:54:50;2.80;;;1.38;;
70467;SDS011;57934;51.532;7.684;2022-09-02T13:57:21;2.70;;;1.30;;
70467;SDS011;57934;51.532;7.684;2022-09-02T13:59:50;4.47;;;1.05;;
70467;SDS011;57934;51.532;7.684;2022-09-02T14:02:30;3.78;;;1.88;;
70467;SDS011;57934;51.532;7.684;2022-09-02T14:05:19;2.65;;;1.17;;
70467;SDS011;57934;51.532;7.684;2022-09-02T14:07:49;2.10;;;1.10;;
70467;SDS011;57934;51.532;7.684;2022-09-02T14:10:19;1.90;;;1.10;;
70467;SDS011;57934;51.532;7.684;2022-09-02T14:12:49;1.70;;;1.00;;
70467;SDS011;57934;51.532;7.684;2022-09-02T14:15:21;0.80;;;0.80;;
70467;SDS011;57934;51.532;7.684;2022-09-02T14:20:50;3.22;;;1.20;;
70467;SDS011;57934;51.532;7.684;2022-09-02T14:23:21;1.33;;;0.90;;
70467;SDS011;57934;51.532;7.684;2022-09-02T14:25:57;1.50;;;1.00;;
70467;SDS011;57934;51.532;7.684;2022-09-02T14:28:26;1.38;;;1.17;;
70467;SDS011;57934;51.532;7.684;2022-09-02T14:30:56;0.90;;;0.90;;
70467;SDS011;57934;51.532;7.684;2022-09-02T14:41:24;4.28;;;1.30;;
70467;SDS011;57934;51.532;7.684;2022-09-02T14:49:02;1.30;;;1.10;;
70467;SDS011;57934;51.532;7.684;2022-09-02T14:51:37;1.42;;;0.90;;
70467;SDS011;57934;51.532;7.684;2022-09-02T14:54:07;3.50;;;1.40;;
70467;SDS011;57934;51.532;7.684;2022-09-02T14:56:44;1.55;;;1.30;;
70467;SDS011;57934;51.532;7.684;2022-09-02T14:59:12;4.30;;;1.10;;
70467;SDS011;57934;51.532;7.684;2022-09-02T15:01:39;1.75;;;1.13;;
70467;SDS011;57934;51.532;7.684;2022-09-02T15:04:07;1.63;;;1.15;;
70467;SDS011;57934;51.532;7.684;2022-09-02T15:06:34;3.80;;;1.25;;
70467;SDS011;57934;51.532;7.684;2022-09-02T15:08:59;4.32;;;1.42;;
70467;SDS011;57934;51.532;7.684;2022-09-02T15:11:26;3.28;;;1.15;;
70467;SDS011;57934;51.532;7.684;2022-09-02T15:13:52;2.65;;;1.05;;
70467;SDS011;57934;51.532;7.684;2022-09-02T15:16:18;2.55;;;1.00;;
70467;SDS011;57934;51.532;7.684;2022-09-02T15:18:44;4.32;;;1.10;;
70467;SDS011;57934;51.532;7.684;2022-09-02T15:21:10;1.20;;;1.10;;
70467;SDS011;57934;51.532;7.684;2022-09-02T15:23:37;2.25;;;1.20;;
70467;SDS011;57934;51.532;7.684;2022-09-02T15:26:05;0.80;;;0.80;;
70467;SDS011;57934;51.532;7.684;2022-09-02T15:28:33;3.30;;;1.42;;
70467;SDS011;57934;51.532;7.684;2022-09-02T15:30:59;2.55;;;1.00;;
70467;SDS011;57934;51.532;7.684;2022-09-02T15:33:26;1.95;;;1.10;;
70467;SDS011;57934;51.532;7.684;2022-09-02T15:35:53;4.82;;;1.35;;
70467;SDS011;57934;51.532;7.684;2022-09-02T15:38:20;1.27;;;1.17;;
70467;SDS011;57934;51.532;7.684;2022-09-02T15:40:46;2.28;;;1.30;;
70467;SDS011;57934;51.532;7.684;2022-09-02T15:43:12;1.50;;;0.98;;
70467;SDS011;57934;51.532;7.684;2022-09-02T15:45:45;1.05;;;1.00;;
70467;SDS011;57934;51.532;7.684;2022-09-02T15:48:12;1.52;;;1.15;;
70467;SDS011;57934;51.532;7.684;2022-09-02T15:50:38;1.20;;;1.10;;
70467;SDS011;57934;51.532;7.684;2022-09-02T15:53:04;1.60;;;1.00;;
70467;SDS011;57934;51.532;7.684;2022-09-02T15:55:31;5.10;;;1.33;;
70467;SDS011;57934;51.532;7.684;2022-09-02T15:57:58;4.47;;;1.52;;
70467;SDS011;57934;51.532;7.684;2022-09-02T16:00:25;2.38;;;0.93;;
70467;SDS011;57934;51.532;7.684;2022-09-02T16:02:51;1.52;;;1.00;;
70467;SDS011;57934;51.532;7.684;2022-09-02T16:05:18;2.20;;;1.10;;
70467;SDS011;57934;51.532;7.684;2022-09-02T16:07:45;1.20;;;1.10;;
70467;SDS011;57934;51.532;7.684;2022-09-02T16:10:14;1.25;;;0.90;;
70467;SDS011;57934;51.532;7.684;2022-09-02T16:12:40;1.20;;;1.00;;
70467;SDS011;57934;51.532;7.684;2022-09-02T16:15:07;3.28;;;1.40;;
70467;SDS011;57934;51.532;7.684;2022-09-02T16:17:34;1.75;;;1.45;;
70467;SDS011;57934;51.532;7.684;2022-09-02T16:20:01;6.82;;;1.38;;
70467;SDS011;57934;51.532;7.684;2022-09-02T16:22:28;2.20;;;1.20;;
70467;SDS011;57934;51.532;7.684;2022-09-02T16:24:54;2.65;;;0.95;;
70467;SDS011;57934;51.532;7.684;2022-09-02T16:27:20;1.50;;;1.15;;
70467;SDS011;57934;51.532;7.684;2022-09-02T16:30:06;2.13;;;1.33;;
70467;SDS011;57934;51.532;7.684;2022-09-02T16:32:33;1.20;;;1.00;;
70467;SDS011;57934;51.532;7.684;2022-09-02T16:34:59;1.60;;;1.50;;
70467;SDS011;57934;51.532;7.684;2022-09-02T16:37:25;6.00;;;2.10;;
70467;SDS011;57934;51.532;7.684;2022-09-02T16:39:51;3.92;;;1.23;;
70467;SDS011;57934;51.532;7.684;2022-09-02T16:42:17;3.47;;;1.75;;
70467;SDS011;57934;51.532;7.684;2022-09-02T16:44:43;3.33;;;1.42;;
70467;SDS011;57934;51.532;7.684;2022-09-02T16:47:10;2.08;;;1.20;;
70467;SDS011;57934;51.532;7.684;2022-09-02T16:49:36;1.52;;;1.20;;
70467;SDS011;57934;51.532;7.684;2022-09-02T16:52:02;5.97;;;1.50;;
70467;SDS011;57934;51.532;7.684;2022-09-02T16:54:28;3.05;;;1.40;;
70467;SDS011;57934;51.532;7.684;2022-09-02T16:56:54;2.40;;;1.80;;
70467;SDS011;57934;51.532;7.684;2022-09-02T16:59:21;1.58;;;1.30;;
70467;SDS011;57934;51.532;7.684;2022-09-02T17:01:47;6.07;;;1.60;;
70467;SDS011;57934;51.532;7.684;2022-09-02T17:04:13;3.92;;;1.35;;
70467;SDS011;57934;51.532;7.684;2022-09-02T17:06:39;2.55;;;1.05;;
70467;SDS011;57934;51.532;7.684;2022-09-02T17:09:05;3.05;;;1.10;;
70467;SDS011;57934;51.532;7.684;2022-09-02T17:11:32;4.45;;;1.70;;
70467;SDS011;57934;51.532;7.684;2022-09-02T17:14:05;3.80;;;1.55;;
70467;SDS011;57934;51.532;7.684;2022-09-02T17:16:38;6.22;;;2.05;;
70467;SDS011;57934;51.532;7.684;2022-09-02T17:19:05;4.38;;;2.38;;
70467;SDS011;57934;51.532;7.684;2022-09-02T17:21:38;4.82;;;1.73;;
70467;SDS011;57934;51.532;7.684;2022-09-02T17:24:31;6.60;;;2.22;;
70467;SDS011;57934;51.532;7.684;2022-09-02T17:26:57;6.90;;;1.70;;